Chloride, AZ (86431)

1:28 PM MST on February 14, 2016 (GMT -0700)
Redwing Canyon | | Change Station
CLOSE
Current Station
Personal Weather Station
Location: Kingman, AZ
Elevation: 4026 ft
Nearby Weather Stations

Elev 4026 ft 35.37 °N, 114.07 °W | Updated 48 seconds ago

Clear
Clear
68.0 °F
Feels Like 68.0 °F
N
12.5
Wind Variable Wind from NE

Today
High -- | Low -- °F
--% Chance of Precip.
Yesterday
High -- | Low -- °F
Precip. -- in
Pressure 30.03 in
Visibility -9999.0 miles
Clouds Clear
Dew Point 15 °F
Humidity 13%
Rainfall 0.00 in
Snow Depth Not available.
7:24 AM 6:17 PM
Waxing Crescent, 45% visible
METAR KIGM 141951Z AUTO 35008KT CLR 19/M07 A3015 RMK AO2 SLP168 T01891067 $
Pressure 30.03 in
Visibility -9999.0 miles
Clouds Clear
Dew Point 15 °F
Humidity 13%
Rainfall 0.00 in
Snow Depth Not available.
7:24 AM 6:17 PM
Waxing Crescent, 45% visible
METAR KIGM 141951Z AUTO 35008KT CLR 19/M07 A3015 RMK AO2 SLP168 T01891067 $

10-Day Weather Forecast

Almanac

Astronomy

Feb. 14, 2016 Rise Set
Actual Time
Civil Twilight
Nautical Twilight
Astronomical Twilight
Moon
Length of Visible Light
Length of Day
Tomorrow will be .
, % of the Moon is Illuminated

Today's Extremes

State Highs State Lows

Community

WunderPhotos

Upload Photos

1,892,885 photos uploaded!

WunderBlog® & News

Nearby

Air Quality

  Air Quality AQ Index Pollutant
Not available.

Snow Depth

Station Depth Elevation

Earthquake Activity

City Distance Mag. Time & Date
Minimum magnitude displayed is 2.5.

Coastal Water Temperatures

Place Temperature

Stations

Nearby Weather Stations

Station Location Temp. Windchill Dew Point Humidity Wind Precip. Elev Updated Type
                   

Watches & Warnings

There are currently no watches in effect.